Time;durP1;ratioP1;P1;durP2;ratioP2;P2;SDS_P1;SDS_P2;PMS_P1;PMS_P2;Temp;Humidity;BMP_temperature;BMP_pressure;BME280_temperature;BME280_humidity;BME280_pressure;Samples;Min_cycle;Max_cycle;Signal;HPM_P1;HPM_P2
2021/01/17 00:00:47;;;;;;;20.13;13.43;;;-2.60;98.30;;;;;;5119512;28;20852;-40
2021/01/17 00:03:13;;;;;;;21.63;12.30;;;-2.60;98.30;;;;;;5123769;27;20456;-40
2021/01/17 00:05:40;;;;;;;19.47;12.17;;;-2.50;98.40;;;;;;5120200;27;20414;-38
2021/01/17 00:08:11;;;;;;;20.57;13.77;;;-2.40;98.40;;;;;;5125080;27;20425;-38
2021/01/17 00:10:37;;;;;;;20.43;12.87;;;-2.40;98.20;;;;;;5140183;27;20484;-36
2021/01/17 00:13:04;;;;;;;20.03;12.33;;;-2.50;98.10;;;;;;5139345;27;20449;-38
2021/01/17 00:15:32;;;;;;;18.13;12.17;;;-2.40;98.20;;;;;;5137448;27;20931;-38
2021/01/17 00:17:59;;;;;;;19.20;12.97;;;-2.40;98.10;;;;;;5136596;27;20429;-39
2021/01/17 00:20:25;;;;;;;21.93;12.50;;;-2.40;98.10;;;;;;5138501;27;20440;-39
2021/01/17 00:22:55;;;;;;;23.40;12.93;;;-2.40;98.10;;;;;;5135902;27;20473;-37
2021/01/17 00:25:22;;;;;;;20.30;12.63;;;-2.40;98.10;;;;;;5128007;27;20433;-39
2021/01/17 00:27:53;;;;;;;18.80;13.47;;;-2.40;98.30;;;;;;5123220;27;20417;-40
2021/01/17 00:30:24;;;;;;;22.87;13.50;;;-2.40;98.20;;;;;;5127093;27;20711;-37
2021/01/17 00:32:56;;;;;;;22.97;13.33;;;-2.40;98.20;;;;;;5124619;27;20428;-37
2021/01/17 00:35:26;;;;;;;17.20;11.43;;;-2.30;98.20;;;;;;5137841;27;20433;-38
2021/01/17 00:37:53;;;;;;;21.77;12.10;;;-2.40;98.00;;;;;;5134822;27;20486;-41
2021/01/17 00:40:20;;;;;;;22.37;13.30;;;-2.30;98.10;;;;;;5116841;28;20434;-36
2021/01/17 00:42:47;;;;;;;19.13;13.03;;;-2.40;98.10;;;;;;5132354;27;20519;-38
2021/01/17 00:45:14;;;;;;;21.63;13.47;;;-2.40;98.20;;;;;;5133222;27;20433;-37
2021/01/17 00:47:49;;;;;;;21.50;14.30;;;-2.30;98.30;;;;;;5126325;27;20433;-36
2021/01/17 00:50:17;;;;;;;22.17;13.70;;;-2.30;98.50;;;;;;5136910;27;20475;-39
2021/01/17 00:52:44;;;;;;;18.60;13.10;;;-2.20;98.60;;;;;;5137148;27;20485;-39
2021/01/17 00:55:11;;;;;;;20.13;13.70;;;-2.20;98.50;;;;;;5115875;28;20426;-39
2021/01/17 00:57:39;;;;;;;21.67;13.83;;;-2.30;98.50;;;;;;5117898;27;20524;-37
2021/01/17 01:00:08;;;;;;;19.10;13.33;;;-2.20;98.60;;;;;;5135182;27;20432;-37
2021/01/17 01:02:34;;;;;;;22.73;14.40;;;-2.20;98.70;;;;;;5119429;27;20576;-38
2021/01/17 01:05:02;;;;;;;26.10;15.50;;;-2.20;98.70;;;;;;5136576;27;20448;-38
2021/01/17 01:07:28;;;;;;;20.67;13.70;;;-2.20;98.70;;;;;;5137136;27;20440;-38
2021/01/17 01:09:54;;;;;;;21.13;13.93;;;-2.20;98.70;;;;;;5117258;27;20426;-36
2021/01/17 01:12:20;;;;;;;21.60;13.53;;;-2.10;98.70;;;;;;5133968;27;20719;-38
2021/01/17 01:14:46;;;;;;;21.00;12.73;;;-2.20;98.60;;;;;;5120580;27;20567;-38
2021/01/17 01:17:12;;;;;;;23.10;15.50;;;-2.10;98.70;;;;;;5119431;27;20429;-37
2021/01/17 01:19:38;;;;;;;26.10;15.13;;;-2.20;98.70;;;;;;5134268;27;20464;-37
2021/01/17 01:22:04;;;;;;;23.87;13.43;;;-2.10;98.80;;;;;;5132734;27;20467;-38
2021/01/17 01:24:35;;;;;;;24.17;15.83;;;-2.10;98.80;;;;;;5136930;27;20545;-37
2021/01/17 01:27:01;;;;;;;23.07;14.13;;;-2.20;98.80;;;;;;5137486;27;20453;-38
2021/01/17 01:29:27;;;;;;;23.53;15.03;;;-2.20;98.80;;;;;;5135311;27;20441;-38
2021/01/17 01:31:53;;;;;;;25.50;14.50;;;-2.20;98.80;;;;;;5138587;27;20409;-36
2021/01/17 01:34:19;;;;;;;25.33;15.43;;;-2.20;98.90;;;;;;5136083;28;20433;-36
2021/01/17 01:36:45;;;;;;;24.30;15.90;;;-2.20;99.30;;;;;;5138934;27;20520;-38
2021/01/17 01:39:12;;;;;;;24.00;13.73;;;-2.20;99.00;;;;;;5122410;28;20708;-37
2021/01/17 01:41:42;;;;;;;22.77;13.73;;;-2.20;98.90;;;;;;5139298;27;20197;-38
2021/01/17 01:44:10;;;;;;;25.03;15.10;;;-2.20;98.90;;;;;;5127146;28;20477;-37
2021/01/17 01:46:40;;;;;;;21.50;13.73;;;-2.20;99.00;;;;;;5130019;28;20444;-37
2021/01/17 01:49:08;;;;;;;23.10;14.87;;;-2.20;99.10;;;;;;5124104;28;20514;-39
2021/01/17 01:51:36;;;;;;;23.00;13.77;;;-2.20;99.20;;;;;;5129417;28;20518;-39
2021/01/17 01:54:02;;;;;;;20.97;13.20;;;-2.20;99.20;;;;;;5126233;28;20453;-37
2021/01/17 01:56:28;;;;;;;22.43;12.90;;;-2.20;99.20;;;;;;5125318;28;20773;-39
2021/01/17 01:58:55;;;;;;;25.97;15.80;;;-2.20;99.30;;;;;;5122794;28;20441;-37
2021/01/17 02:01:24;;;;;;;24.10;15.50;;;-2.20;99.40;;;;;;5126268;28;20465;-39
2021/01/17 02:03:52;;;;;;;23.67;15.10;;;-2.20;99.50;;;;;;5127830;28;20568;-38
2021/01/17 02:06:23;;;;;;;24.70;15.00;;;-2.20;99.50;;;;;;5117076;28;20448;-38
2021/01/17 02:09:03;;;;;;;24.33;14.97;;;-2.10;99.60;;;;;;5120836;27;20497;-38
2021/01/17 02:11:56;;;;;;;24.03;13.70;;;-2.10;99.30;;;;;;5128539;27;20421;-39
2021/01/17 02:14:25;;;;;;;23.70;14.67;;;-2.20;99.10;;;;;;5136591;27;20471;-37
2021/01/17 02:16:53;;;;;;;24.53;14.50;;;-2.10;99.20;;;;;;5133443;27;20424;-37
2021/01/17 02:19:21;;;;;;;26.80;17.03;;;-2.20;99.20;;;;;;5120659;27;20429;-37
2021/01/17 02:21:57;;;;;;;24.80;15.43;;;-2.10;99.20;;;;;;5121829;28;20410;-38
2021/01/17 02:24:51;;;;;;;21.93;15.07;;;-2.20;99.10;;;;;;5120735;28;20484;-38
2021/01/17 02:27:17;;;;;;;23.57;16.50;;;-2.20;99.10;;;;;;5083143;28;20509;-38
2021/01/17 02:29:46;;;;;;;24.10;16.67;;;-2.20;99.10;;;;;;5117468;28;20502;-36
2021/01/17 02:32:12;;;;;;;21.70;15.30;;;-2.20;99.20;;;;;;5121221;28;20402;-37
2021/01/17 02:34:38;;;;;;;23.80;15.87;;;-2.20;99.20;;;;;;5113044;27;20436;-37
2021/01/17 02:37:05;;;;;;;24.90;16.13;;;-2.20;99.10;;;;;;5142690;27;20413;-37
2021/01/17 02:39:50;;;;;;;25.47;16.53;;;-2.20;99.10;;;;;;5140705;27;20429;-38
2021/01/17 02:42:16;;;;;;;21.73;15.17;;;-2.20;99.20;;;;;;5141595;27;20879;-39
2021/01/17 02:44:42;;;;;;;28.47;17.30;;;-2.20;99.30;;;;;;5141304;27;20472;-40
2021/01/17 02:47:08;;;;;;;28.47;17.30;;;-2.10;99.40;;;;;;5142942;27;20404;-37
2021/01/17 02:49:35;;;;;;;24.23;16.73;;;-2.10;99.20;;;;;;5141510;27;20439;-38
2021/01/17 02:52:05;;;;;;;24.67;16.27;;;-2.10;99.20;;;;;;5142027;27;20206;-38
2021/01/17 02:54:33;;;;;;;25.80;17.03;;;-2.10;99.20;;;;;;5142019;27;20425;-38
2021/01/17 02:57:02;;;;;;;27.47;17.20;;;-2.10;99.20;;;;;;5141739;27;20451;-37
2021/01/17 02:59:35;;;;;;;30.43;19.70;;;-2.10;99.20;;;;;;5142040;27;20485;-39
2021/01/17 03:02:06;;;;;;;26.53;17.30;;;-2.10;99.40;;;;;;5140124;27;20435;-39
2021/01/17 03:04:44;;;;;;;24.00;15.40;;;-2.00;99.60;;;;;;5140635;27;20472;-38
2021/01/17 03:07:12;;;;;;;27.07;17.10;;;-2.00;99.50;;;;;;5141592;27;20818;-38
2021/01/17 03:09:39;;;;;;;28.13;16.50;;;-2.00;99.40;;;;;;5141417;27;20454;-38
2021/01/17 03:12:05;;;;;;;26.53;17.60;;;-2.00;99.40;;;;;;5121414;27;20498;-38
2021/01/17 03:14:35;;;;;;;24.07;16.00;;;-2.00;99.40;;;;;;5120345;28;20461;-38
2021/01/17 03:17:04;;;;;;;28.60;18.03;;;-2.00;99.40;;;;;;5120727;28;20731;-38
2021/01/17 03:19:30;;;;;;;26.10;16.73;;;-2.00;99.50;;;;;;5120652;28;20426;-38
2021/01/17 03:21:56;;;;;;;33.70;18.77;;;-2.00;99.60;;;;;;5118661;28;20775;-38
2021/01/17 03:24:24;;;;;;;31.83;18.70;;;-1.90;99.70;;;;;;5121335;28;20481;-38
2021/01/17 03:26:50;;;;;;;29.23;17.17;;;-1.90;99.50;;;;;;5120291;28;20430;-38
2021/01/17 03:29:16;;;;;;;29.37;16.90;;;-1.90;99.50;;;;;;5119060;28;20406;-39
2021/01/17 03:31:42;;;;;;;27.13;16.20;;;-1.90;99.80;;;;;;5118040;28;20524;-38
2021/01/17 03:34:08;;;;;;;31.00;17.00;;;-1.90;99.60;;;;;;5120552;28;20417;-38
2021/01/17 03:36:34;;;;;;;29.10;17.73;;;-1.80;99.60;;;;;;5118243;28;20429;-38
2021/01/17 03:39:00;;;;;;;25.67;16.30;;;-1.80;99.50;;;;;;5119992;27;20315;-41
2021/01/17 03:41:26;;;;;;;27.70;17.30;;;-1.80;99.40;;;;;;5119237;28;20851;-37
2021/01/17 03:43:52;;;;;;;26.63;17.63;;;-1.80;99.20;;;;;;5125183;27;20909;-37
2021/01/17 03:46:18;;;;;;;25.27;17.63;;;-1.80;99.10;;;;;;5138120;27;20428;-39
2021/01/17 03:48:44;;;;;;;26.90;15.93;;;-1.80;99.40;;;;;;5140518;27;20878;-38
2021/01/17 03:51:10;;;;;;;30.03;17.77;;;-1.80;99.10;;;;;;5140878;27;20424;-37
2021/01/17 03:53:36;;;;;;;28.93;18.90;;;-1.90;99.00;;;;;;5141143;27;20431;-39
2021/01/17 03:56:02;;;;;;;25.47;15.73;;;-1.90;99.10;;;;;;5140196;27;20420;-38
2021/01/17 03:58:28;;;;;;;30.10;20.00;;;-1.90;99.10;;;;;;5140795;27;20218;-38
2021/01/17 04:00:54;;;;;;;29.50;17.83;;;-1.80;99.20;;;;;;5140989;27;20830;-38
2021/01/17 04:03:20;;;;;;;28.10;17.10;;;-1.80;99.10;;;;;;5141816;27;20218;-40
2021/01/17 04:05:46;;;;;;;26.33;18.07;;;-1.90;99.00;;;;;;5140123;27;20767;-39
2021/01/17 04:08:13;;;;;;;29.73;17.67;;;-1.90;99.00;;;;;;5141873;27;20496;-40
2021/01/17 04:10:39;;;;;;;25.00;16.30;;;-1.90;99.00;;;;;;5139650;27;20429;-38
2021/01/17 04:13:08;;;;;;;28.00;18.37;;;-1.90;99.10;;;;;;5122916;27;20452;-38
2021/01/17 04:15:34;;;;;;;28.20;17.57;;;-1.90;99.20;;;;;;5138385;27;20506;-37
2021/01/17 04:18:00;;;;;;;30.97;19.30;;;-1.90;99.30;;;;;;5140049;27;20456;-38
2021/01/17 04:20:27;;;;;;;32.53;19.60;;;-1.90;99.40;;;;;;5138267;27;20413;-39
2021/01/17 04:22:53;;;;;;;36.73;19.83;;;-1.90;99.30;;;;;;5140005;27;20519;-37
2021/01/17 04:25:19;;;;;;;28.77;17.67;;;-1.90;99.30;;;;;;5139659;27;20474;-39
2021/01/17 04:27:45;;;;;;;26.33;18.30;;;-1.80;99.40;;;;;;5139126;27;20239;-39
2021/01/17 04:30:12;;;;;;;25.53;17.70;;;-1.80;99.80;;;;;;5138481;27;20833;-39
2021/01/17 04:32:39;;;;;;;30.17;18.70;;;-1.80;99.50;;;;;;5138650;27;20466;-38
2021/01/17 04:35:06;;;;;;;29.37;19.40;;;-1.80;99.40;;;;;;5139802;27;20413;-38
2021/01/17 04:37:32;;;;;;;31.07;19.47;;;-1.80;99.40;;;;;;5139477;27;20421;-39
2021/01/17 04:39:58;;;;;;;30.23;19.37;;;-1.80;99.40;;;;;;5138511;27;20710;-37
2021/01/17 04:42:24;;;;;;;31.67;20.40;;;-1.80;99.50;;;;;;5138399;27;20488;-38
2021/01/17 04:44:52;;;;;;;29.40;19.07;;;-1.80;99.50;;;;;;5139363;27;20480;-38
2021/01/17 04:47:19;;;;;;;32.50;19.50;;;-1.80;99.60;;;;;;5137040;27;20514;-38
2021/01/17 04:50:02;;;;;;;33.77;18.90;;;-1.80;99.70;;;;;;5138356;27;20417;-37
2021/01/17 04:52:29;;;;;;;28.90;18.50;;;-1.80;99.80;;;;;;5138037;27;20420;-41
2021/01/17 04:54:57;;;;;;;31.10;18.73;;;-1.80;99.80;;;;;;5138936;27;20714;-37
2021/01/17 04:57:56;;;;;;;29.43;19.13;;;-1.80;99.80;;;;;;5121057;27;20441;-39
2021/01/17 05:00:30;;;;;;;31.63;19.03;;;-1.80;99.80;;;;;;5139544;27;20421;-38
2021/01/17 05:03:18;;;;;;;30.63;18.90;;;-1.70;99.90;;;;;;5137550;27;20417;-39
2021/01/17 05:06:06;;;;;;;31.90;19.73;;;-1.70;99.90;;;;;;5139750;27;20453;-38
2021/01/17 05:08:33;;;;;;;27.50;18.27;;;-1.60;99.90;;;;;;5137981;27;20463;-38
2021/01/17 05:11:07;;;;;;;32.13;18.93;;;-1.60;99.90;;;;;;5139590;27;20413;-38
2021/01/17 05:13:34;;;;;;;30.33;18.43;;;-1.60;99.90;;;;;;5138545;27;20479;-39
2021/01/17 05:16:06;;;;;;;31.73;18.87;;;-1.50;99.90;;;;;;5129710;27;20414;-41
2021/01/17 05:18:33;;;;;;;28.23;18.77;;;-1.50;99.60;;;;;;5117921;28;20517;-36
2021/01/17 05:21:01;;;;;;;27.60;20.10;;;-1.40;99.60;;;;;;5118754;28;20521;-41
2021/01/17 05:23:33;;;;;;;25.40;17.40;;;-1.40;99.40;;;;;;5117478;28;20484;-39
2021/01/17 05:26:00;;;;;;;27.80;18.63;;;-1.30;99.30;;;;;;5118413;28;20430;-41
2021/01/17 05:28:31;;;;;;;28.97;17.70;;;-1.30;99.20;;;;;;5118158;28;20811;-37
2021/01/17 05:30:57;;;;;;;28.30;18.40;;;-1.30;99.20;;;;;;5118399;28;20831;-38
2021/01/17 05:33:28;;;;;;;30.97;19.07;;;-1.20;99.20;;;;;;5116333;28;20422;-39
2021/01/17 05:35:55;;;;;;;28.70;18.23;;;-1.20;99.20;;;;;;5118593;28;20498;-39
2021/01/17 05:38:21;;;;;;;26.67;18.73;;;-1.10;99.10;;;;;;5117458;28;20660;-38
2021/01/17 05:40:47;;;;;;;26.60;17.37;;;-1.10;99.10;;;;;;5118831;28;20657;-38
2021/01/17 05:43:13;;;;;;;30.17;19.20;;;-1.10;99.10;;;;;;5117714;28;20469;-39
2021/01/17 05:45:42;;;;;;;28.63;19.10;;;-1.00;99.10;;;;;;5121846;28;20203;-39
2021/01/17 05:48:10;;;;;;;28.90;18.60;;;-1.00;99.10;;;;;;5121146;28;20573;-38
2021/01/17 05:50:44;;;;;;;26.27;18.83;;;-0.90;99.20;;;;;;5122003;28;20417;-38
2021/01/17 05:53:11;;;;;;;28.90;19.00;;;-0.90;99.20;;;;;;5121456;28;20424;-39
2021/01/17 05:55:42;;;;;;;27.30;18.40;;;-0.90;99.30;;;;;;5122520;28;20699;-38
2021/01/17 05:58:27;;;;;;;25.37;17.23;;;-0.80;99.40;;;;;;5119164;28;20689;-37
2021/01/17 06:00:54;;;;;;;23.33;16.47;;;-0.80;99.50;;;;;;5122382;27;20671;-38
2021/01/17 06:03:29;;;;;;;29.50;18.67;;;-0.80;99.60;;;;;;5120855;27;20484;-39
2021/01/17 06:06:05;;;;;;;27.20;17.77;;;-0.70;99.70;;;;;;5121889;27;20432;-38
2021/01/17 06:08:32;;;;;;;27.70;17.60;;;-0.60;99.70;;;;;;5122034;28;20493;-38
2021/01/17 06:11:09;;;;;;;25.40;16.97;;;-0.60;99.60;;;;;;5136589;27;20428;-38
2021/01/17 06:13:40;;;;;;;23.83;17.20;;;-0.60;99.50;;;;;;5140908;27;20794;-38
2021/01/17 06:16:28;;;;;;;28.23;17.23;;;-0.60;99.70;;;;;;5142686;27;20826;-39
2021/01/17 06:18:56;;;;;;;27.93;18.47;;;-0.60;99.30;;;;;;5141766;27;20426;-38
2021/01/17 06:21:27;;;;;;;25.30;17.10;;;-0.60;99.20;;;;;;5142021;27;20714;-38
2021/01/17 06:24:00;;;;;;;22.80;15.30;;;-0.60;99.10;;;;;;5140205;27;20476;-38
2021/01/17 06:26:34;;;;;;;25.93;16.97;;;-0.70;98.90;;;;;;5140622;27;20408;-37
2021/01/17 06:29:02;;;;;;;28.03;17.60;;;-0.70;98.90;;;;;;5140145;27;20686;-37
2021/01/17 06:31:29;;;;;;;24.97;16.17;;;-0.80;99.00;;;;;;5141073;27;20412;-39
2021/01/17 06:34:11;;;;;;;27.17;17.70;;;-0.80;99.10;;;;;;5140693;27;20468;-40
2021/01/17 06:36:40;;;;;;;24.53;16.80;;;-0.80;99.20;;;;;;5141046;27;20455;-40
2021/01/17 06:39:22;;;;;;;26.30;16.63;;;-0.80;99.30;;;;;;5140762;27;20447;-39
2021/01/17 06:41:57;;;;;;;28.63;17.90;;;-0.80;99.40;;;;;;5141945;27;20420;-38
2021/01/17 06:44:31;;;;;;;25.87;17.73;;;-0.80;99.40;;;;;;5140769;27;20467;-37
2021/01/17 06:46:58;;;;;;;27.93;17.90;;;-0.90;99.30;;;;;;5141686;27;20469;-39
2021/01/17 06:49:27;;;;;;;27.53;19.03;;;-0.90;99.40;;;;;;5139187;27;20460;-39
2021/01/17 06:51:54;;;;;;;30.77;19.17;;;-1.00;99.40;;;;;;5132279;27;20437;-39
2021/01/17 06:54:23;;;;;;;27.70;17.97;;;-1.00;99.40;;;;;;5120967;28;20421;-39
2021/01/17 06:56:51;;;;;;;30.37;19.60;;;-1.10;99.40;;;;;;5123885;27;20430;-38
2021/01/17 06:59:50;;;;;;;29.20;18.47;;;-1.10;99.50;;;;;;5139370;27;20416;-37
2021/01/17 07:02:24;;;;;;;33.13;19.53;;;-1.10;99.70;;;;;;5075962;28;20428;-38
2021/01/17 07:04:53;;;;;;;29.63;19.40;;;-1.00;99.90;;;;;;5084483;27;20464;-37
2021/01/17 07:07:37;;;;;;;31.83;20.10;;;-0.90;99.90;;;;;;5135181;27;20834;-38
2021/01/17 07:10:07;;;;;;;30.27;19.83;;;-0.90;99.90;;;;;;5103960;28;20425;-38
2021/01/17 07:13:03;;;;;;;32.23;20.90;;;-0.90;99.90;;;;;;5121557;27;20838;-38
2021/01/17 07:15:35;;;;;;;32.93;19.90;;;-0.90;99.90;;;;;;5124422;27;20468;-38
2021/01/17 07:18:01;;;;;;;33.63;21.23;;;-0.80;99.90;;;;;;5132172;27;20422;-38
2021/01/17 07:20:35;;;;;;;30.17;20.00;;;-0.80;99.90;;;;;;5137386;27;20515;-38
2021/01/17 07:23:03;;;;;;;31.73;19.93;;;-0.80;99.90;;;;;;5142721;27;20404;-40
2021/01/17 07:25:31;;;;;;;33.00;19.93;;;-0.80;99.90;;;;;;5141024;27;20434;-38
2021/01/17 07:28:08;;;;;;;29.30;19.27;;;-0.70;99.90;;;;;;5142326;27;20404;-39
2021/01/17 07:30:49;;;;;;;29.30;19.53;;;-0.60;99.90;;;;;;5141700;27;20724;-40
2021/01/17 07:33:24;;;;;;;23.30;16.87;;;-0.60;99.90;;;;;;5141338;27;20458;-37
2021/01/17 07:35:51;;;;;;;31.60;19.63;;;-0.50;99.80;;;;;;5140368;27;20431;-38
2021/01/17 07:38:29;;;;;;;31.63;19.13;;;-0.60;99.70;;;;;;5141286;27;20429;-37
2021/01/17 07:40:58;;;;;;;29.60;19.27;;;-0.50;99.70;;;;;;5140135;27;20431;-38
2021/01/17 07:43:31;;;;;;;34.33;20.10;;;-0.40;99.80;;;;;;5136371;27;20720;-39
2021/01/17 07:46:00;;;;;;;31.80;18.83;;;-0.40;99.70;;;;;;5122795;27;20434;-38
2021/01/17 07:48:26;;;;;;;29.00;19.50;;;-0.50;99.50;;;;;;5126484;27;20433;-40
2021/01/17 07:50:55;;;;;;;29.03;19.57;;;-0.50;99.50;;;;;;5125172;27;20444;-39
2021/01/17 07:53:30;;;;;;;29.53;19.10;;;-0.50;99.60;;;;;;5142383;27;20420;-39
2021/01/17 07:56:10;;;;;;;23.47;16.87;;;-0.40;99.60;;;;;;5141269;27;20420;-38
2021/01/17 07:58:47;;;;;;;28.77;18.73;;;-0.30;99.60;;;;;;5140446;27;20427;-39
2021/01/17 08:01:31;;;;;;;31.70;18.57;;;-0.30;99.30;;;;;;5140785;27;20424;-37
2021/01/17 08:04:21;;;;;;;24.87;17.70;;;-0.40;98.90;;;;;;5125207;27;20465;-38
2021/01/17 08:06:47;;;;;;;25.00;16.67;;;-0.40;98.90;;;;;;5121442;28;20420;-39
2021/01/17 08:09:17;;;;;;;28.00;17.80;;;-0.40;99.00;;;;;;5124306;28;20489;-39
2021/01/17 08:11:46;;;;;;;28.37;19.20;;;-0.50;99.00;;;;;;5123137;28;20502;-39
2021/01/17 08:14:31;;;;;;;26.27;17.80;;;-0.50;99.20;;;;;;5119636;28;20480;-39
2021/01/17 08:17:11;;;;;;;29.47;17.70;;;-0.40;99.40;;;;;;5119318;28;20417;-40
2021/01/17 08:19:54;;;;;;;27.67;18.70;;;-0.40;99.40;;;;;;5119424;28;20737;-38
2021/01/17 08:22:23;;;;;;;28.37;18.97;;;-0.30;99.40;;;;;;5118811;28;20417;-38
2021/01/17 08:24:51;;;;;;;28.10;20.10;;;-0.30;99.40;;;;;;5119528;28;20541;-39
2021/01/17 08:27:42;;;;;;;26.90;19.33;;;-0.30;99.60;;;;;;5119543;28;20666;-37
2021/01/17 08:30:08;;;;;;;29.20;19.60;;;-0.20;99.60;;;;;;5119217;28;20418;-38
2021/01/17 08:32:47;;;;;;;29.00;18.67;;;-0.10;99.50;;;;;;5116594;27;20481;-39
2021/01/17 08:35:23;;;;;;;27.40;18.20;;;0.00;99.30;;;;;;5139420;27;20419;-40
2021/01/17 08:37:51;;;;;;;19.07;12.30;;;0.10;99.30;;;;;;5130604;27;20439;-37
2021/01/17 08:40:24;;;;;;;34.27;24.10;;;0.70;99.90;;;;;;5138548;27;20428;-38
2021/01/17 08:42:51;;;;;;;31.23;21.20;;;1.00;99.90;;;;;;5128377;27;20490;-38
2021/01/17 08:45:21;;;;;;;29.63;21.10;;;1.00;99.90;;;;;;5118860;28;20440;-39
2021/01/17 08:47:51;;;;;;;31.77;19.83;;;0.90;99.90;;;;;;5115929;27;20437;-39
2021/01/17 08:50:26;;;;;;;26.37;18.10;;;0.90;99.90;;;;;;5121108;27;20409;-39
2021/01/17 08:53:04;;;;;;;29.97;20.00;;;0.90;99.90;;;;;;5131639;27;20429;-38
2021/01/17 08:55:41;;;;;;;26.73;17.93;;;0.80;98.70;;;;;;5118016;28;20473;-40
2021/01/17 08:58:07;;;;;;;25.03;19.23;;;0.70;98.40;;;;;;5131104;27;20884;-40
2021/01/17 09:00:48;;;;;;;27.53;18.13;;;0.80;98.50;;;;;;5139856;27;20416;-39
2021/01/17 09:03:42;;;;;;;26.90;18.80;;;0.80;98.50;;;;;;5126869;27;20538;-38
2021/01/17 09:06:13;;;;;;;30.53;20.53;;;0.80;98.40;;;;;;5119924;27;20858;-39
2021/01/17 09:09:06;;;;;;;27.70;19.80;;;0.90;98.30;;;;;;5116424;28;20433;-38
2021/01/17 09:11:38;;;;;;;29.20;19.83;;;0.90;98.10;;;;;;5116231;28;20426;-41
2021/01/17 09:14:19;;;;;;;26.50;18.80;;;1.00;98.20;;;;;;5116639;28;20465;-39
2021/01/17 09:16:57;;;;;;;26.70;18.70;;;1.10;98.20;;;;;;5118085;28;20661;-39
2021/01/17 09:19:28;;;;;;;25.10;18.87;;;1.10;98.10;;;;;;5117588;28;20449;-39
2021/01/17 09:21:55;;;;;;;28.27;18.80;;;1.20;98.00;;;;;;5118180;28;20811;-40
2021/01/17 09:24:29;;;;;;;27.80;18.70;;;1.20;97.80;;;;;;5118832;28;20523;-40
2021/01/17 09:26:57;;;;;;;30.13;18.70;;;1.10;97.30;;;;;;5119639;28;20420;-38
2021/01/17 09:29:30;;;;;;;35.33;20.70;;;1.10;97.30;;;;;;5118679;28;20449;-40
2021/01/17 09:32:06;;;;;;;30.80;19.13;;;1.20;97.60;;;;;;5122703;28;20409;-38
2021/01/17 09:34:40;;;;;;;28.97;20.00;;;1.20;97.70;;;;;;5116449;28;20517;-39
2021/01/17 09:37:13;;;;;;;30.10;20.13;;;1.30;97.80;;;;;;5118535;28;20675;-39
2021/01/17 09:39:41;;;;;;;25.03;16.23;;;1.30;97.80;;;;;;5118445;28;20495;-40
2021/01/17 09:42:08;;;;;;;23.20;16.67;;;1.20;97.10;;;;;;5118118;28;20406;-38
2021/01/17 09:44:35;;;;;;;24.67;18.00;;;1.10;97.60;;;;;;5118047;28;20469;-39
2021/01/17 09:47:02;;;;;;;26.23;17.33;;;1.20;98.00;;;;;;5117417;28;20402;-39
2021/01/17 09:49:30;;;;;;;23.87;17.43;;;1.30;98.30;;;;;;5117118;28;20421;-40
2021/01/17 09:51:57;;;;;;;25.07;17.17;;;1.40;97.90;;;;;;5119405;28;20418;-38
2021/01/17 09:54:24;;;;;;;23.93;17.30;;;1.40;97.80;;;;;;5137992;27;20459;-40
2021/01/17 09:56:50;;;;;;;23.40;17.27;;;1.40;97.70;;;;;;5130400;27;20453;-39
2021/01/17 09:59:18;;;;;;;21.07;16.07;;;1.40;97.70;;;;;;5123704;28;20456;-40
2021/01/17 10:01:45;;;;;;;21.43;14.60;;;1.40;97.90;;;;;;5117817;28;20498;-40
2021/01/17 10:04:29;;;;;;;23.50;16.17;;;1.40;98.10;;;;;;5118652;28;20469;-42
2021/01/17 10:06:56;;;;;;;22.53;14.50;;;1.40;97.80;;;;;;5129571;28;20467;-39
2021/01/17 10:09:24;;;;;;;20.23;14.03;;;1.40;97.80;;;;;;5117187;28;20684;-38
2021/01/17 10:11:55;;;;;;;18.70;14.10;;;1.40;98.00;;;;;;5123472;28;20408;-39
2021/01/17 10:14:23;;;;;;;20.80;14.57;;;1.40;98.30;;;;;;5136510;28;20473;-38
2021/01/17 10:16:50;;;;;;;20.97;13.90;;;1.40;98.50;;;;;;5136115;28;20783;-39
2021/01/17 10:19:22;;;;;;;23.80;15.40;;;1.50;98.60;;;;;;5116867;28;20528;-39
2021/01/17 10:21:47;;;;;;;25.90;20.70;;;1.50;98.80;;;;;;5115986;28;20426;-38
2021/01/17 10:24:22;;;;;;;26.83;20.67;;;1.60;98.70;;;;;;5112839;28;20541;-40
2021/01/17 10:26:51;;;;;;;23.00;15.33;;;1.70;98.90;;;;;;5117765;28;20194;-38
2021/01/17 10:29:22;;;;;;;19.73;14.97;;;1.80;98.50;;;;;;5116744;28;20418;-39
2021/01/17 10:31:53;;;;;;;20.07;13.83;;;1.80;98.30;;;;;;5121701;27;20698;-39
2021/01/17 10:34:28;;;;;;;16.40;11.67;;;1.80;98.10;;;;;;5140260;27;20424;-39
2021/01/17 10:37:00;;;;;;;17.70;12.43;;;1.60;97.70;;;;;;5141645;27;20434;-38
2021/01/17 10:39:26;;;;;;;17.07;12.40;;;1.60;98.20;;;;;;5142015;27;20818;-39
2021/01/17 10:42:14;;;;;;;21.10;12.87;;;1.70;98.20;;;;;;5140719;27;20507;-39
2021/01/17 10:45:00;;;;;;;17.60;12.10;;;1.70;98.40;;;;;;5123339;27;20468;-39
2021/01/17 10:47:47;;;;;;;16.57;10.30;;;1.80;98.60;;;;;;5139003;27;20408;-38
2021/01/17 10:50:17;;;;;;;15.63;11.30;;;1.80;98.20;;;;;;5139770;27;20413;-39
2021/01/17 10:52:53;;;;;;;14.17;10.80;;;1.90;97.90;;;;;;5130094;27;20473;-39
2021/01/17 10:55:19;;;;;;;15.97;10.90;;;1.80;97.60;;;;;;5119304;28;20417;-37
2021/01/17 10:57:48;;;;;;;16.90;11.60;;;1.80;98.10;;;;;;5118304;28;20843;-40
2021/01/17 11:00:16;;;;;;;18.63;12.27;;;1.80;98.30;;;;;;5118935;27;20440;-39
2021/01/17 11:02:41;;;;;;;20.07;13.30;;;1.90;98.50;;;;;;5130109;27;20464;-39
2021/01/17 11:05:08;;;;;;;18.73;12.60;;;1.80;98.10;;;;;;5131999;27;20448;-40
2021/01/17 11:07:34;;;;;;;16.00;12.67;;;1.90;98.60;;;;;;5131125;27;20511;-39
2021/01/17 11:10:11;;;;;;;16.70;12.20;;;2.10;98.30;;;;;;5111819;27;20701;-39
2021/01/17 11:12:38;;;;;;;18.30;13.40;;;2.10;98.00;;;;;;5124692;27;20440;-38
2021/01/17 11:15:18;;;;;;;22.30;14.13;;;2.20;98.10;;;;;;5122389;27;20500;-40
2021/01/17 11:17:53;;;;;;;16.83;13.17;;;2.30;97.90;;;;;;5119296;28;20528;-39
2021/01/17 11:20:28;;;;;;;16.20;11.40;;;2.30;97.80;;;;;;5123182;27;20507;-39
2021/01/17 11:23:04;;;;;;;14.30;10.90;;;2.30;97.70;;;;;;5101643;28;20436;-39
2021/01/17 11:25:30;;;;;;;15.27;11.23;;;2.20;97.60;;;;;;5122327;27;20502;-38
2021/01/17 11:28:01;;;;;;;14.70;10.73;;;2.10;97.90;;;;;;5118710;28;20452;-38
2021/01/17 11:30:29;;;;;;;14.20;10.67;;;2.10;98.30;;;;;;5120371;28;20781;-36
2021/01/17 11:33:08;;;;;;;15.97;10.90;;;2.10;97.90;;;;;;5119706;28;20482;-37
2021/01/17 11:35:34;;;;;;;16.57;10.87;;;2.10;98.60;;;;;;5120123;28;20413;-38
2021/01/17 11:38:00;;;;;;;14.50;10.77;;;2.10;98.50;;;;;;5116818;28;20482;-39
2021/01/17 11:40:25;;;;;;;13.53;10.00;;;2.20;98.60;;;;;;5118811;28;20183;-38
2021/01/17 11:43:02;;;;;;;12.83;9.13;;;2.10;97.80;;;;;;5099371;28;20788;-38
2021/01/17 11:45:28;;;;;;;11.53;8.93;;;2.00;98.10;;;;;;5129750;27;20472;-37
2021/01/17 11:48:00;;;;;;;11.60;9.33;;;2.10;98.10;;;;;;5120424;27;20676;-38
2021/01/17 11:50:26;;;;;;;13.80;10.77;;;2.10;98.40;;;;;;5117316;28;20180;-38
2021/01/17 11:53:00;;;;;;;13.67;9.77;;;2.10;98.50;;;;;;5117332;28;20437;-38
2021/01/17 11:55:28;;;;;;;12.67;9.37;;;2.30;98.70;;;;;;5119128;28;20587;-38
2021/01/17 11:58:13;;;;;;;11.53;9.27;;;2.30;98.20;;;;;;5119533;28;20433;-38
2021/01/17 12:00:51;;;;;;;13.20;9.50;;;2.20;98.00;;;;;;5119874;28;20409;-38
2021/01/17 12:03:24;;;;;;;11.50;9.40;;;2.30;98.00;;;;;;5130011;27;20886;-38
2021/01/17 12:06:13;;;;;;;13.53;10.20;;;2.30;98.10;;;;;;5139698;27;20421;-36
2021/01/17 12:08:58;;;;;;;13.10;10.27;;;2.40;98.10;;;;;;5124311;27;20914;-38
2021/01/17 12:11:34;;;;;;;13.20;10.73;;;2.40;98.00;;;;;;5136629;27;20416;-36
2021/01/17 12:14:11;;;;;;;16.00;11.23;;;2.40;97.80;;;;;;5120027;27;20874;-37
2021/01/17 12:16:41;;;;;;;16.10;10.93;;;2.50;97.60;;;;;;5131791;27;20420;-38
2021/01/17 12:19:08;;;;;;;13.40;10.43;;;2.50;97.50;;;;;;5138710;27;20452;-38
2021/01/17 12:21:34;;;;;;;12.03;10.00;;;2.50;97.60;;;;;;5139190;27;20694;-38
2021/01/17 12:24:01;;;;;;;13.17;10.80;;;2.60;97.60;;;;;;5138734;27;20581;-37
2021/01/17 12:26:28;;;;;;;13.30;10.67;;;2.60;97.50;;;;;;5137765;27;20405;-37
2021/01/17 12:28:54;;;;;;;13.30;9.63;;;2.60;97.40;;;;;;5130719;27;20443;-37
2021/01/17 12:31:22;;;;;;;11.37;8.90;;;2.60;97.30;;;;;;5138007;27;20413;-38
2021/01/17 12:33:49;;;;;;;13.93;9.90;;;2.60;97.40;;;;;;5131323;27;20447;-40
2021/01/17 12:36:18;;;;;;;11.67;9.07;;;2.60;97.30;;;;;;5116254;27;20432;-38
2021/01/17 12:38:45;;;;;;;15.43;11.60;;;2.60;97.30;;;;;;5118936;27;20438;-37
2021/01/17 12:41:16;;;;;;;13.50;11.30;;;2.70;97.40;;;;;;5118180;28;20437;-39
2021/01/17 12:43:43;;;;;;;13.80;11.63;;;2.70;97.40;;;;;;5116328;28;20491;-38
2021/01/17 12:46:10;;;;;;;13.10;10.43;;;2.70;97.20;;;;;;5135968;27;20556;-37
2021/01/17 12:48:39;;;;;;;14.40;9.83;;;2.50;97.00;;;;;;5137650;27;20586;-39